RJFO(METAR)
08/12 22:00
METAR RJFO 121300Z VRB02KT 9999 FEW030 SCT080 BKN/// 27/25 Q1007 RMK
1CU030 4AC080 A2976=
戻る
トップページへ戻る
IMOC Co,.Ltd.